Sonic Adventure (DX): Boss Rankings

Records: Times | Rings | Scores | Races | Bosses | Freestyle
Leaders: Times | Rings | Scores | Races | Bosses | Freestyle | Overall
Rank Player Percent Points Date
1 Sonicspeedruner 98.1% 43 06-20-21
2 Gamepro011 95.6% 103 06-20-21
3 Niczur 95.3% 109 06-20-21
4 chainchump 93.4% 153 06-20-21
5 DarkPolarNight 92.7% 170 06-20-21
6 Austinf 90.3% 226 06-20-21
7 Jawzun 87.7% 287 06-20-21
8 drminus 87.2% 298 06-20-21
9 ethmar 85.7% 335 06-20-21
10 Parax 85.5% 340 06-20-21
11 Nim 84.4% 365 06-20-21
12 ike6252 84.3% 368 06-20-21
13 Coolfansonic 83.0% 398 06-20-21
14 Avento128bits 82.5% 409 06-20-21
14 Dashjump 82.5% 409 06-20-21
16 TheRealShadnic 79.5% 479 06-20-21
17 DarkspinesSonic 78.2% 509 06-20-21
18 THC98 76.3% 555 06-20-21
19 F-Man 74.7% 591 06-20-21
20 Marth 73.7% 616 06-20-21
21 Mariobutch 72.5% 644 06-20-21
22 yoshifan 71.3% 671 06-20-21
23 InferSaime 70.7% 685 06-20-21
24 Dekuboy 70.7% 687 06-20-21
25 PfoSonic 70.1% 700 06-20-21
26 HyperSonic7701 68.1% 746 06-20-21
27 RPGnutter 67.3% 765 06-20-21
28 Paragod 65.8% 800 06-20-21
29 mike89 65.4% 811 06-20-21
30 frankoredstrato 65.1% 817 06-20-21
31 sonicam 61.2% 909 06-20-21
32 SadisticMystic 60.7% 920 06-20-21
33 Groudon199 60.7% 921 06-20-21
34 Stefan 59.3% 953 06-20-21
35 Diamond 57.7% 991 06-20-21
36 Combo 56.0% 1030 06-20-21
37 bertin 55.5% 1043 06-20-21
38 CoEmpathy 54.2% 1072 06-20-21
39 SkyLights 53.0% 1101 06-20-21
40 xXMegaManXx 52.6% 1111 06-20-21
41 SPVLABS 47.9% 1220 06-20-21
42 Fr3nZy 47.5% 1229 06-20-21
43 francisco 47.5% 1231 06-20-21
44 Arch 47.2% 1236 06-20-21
45 Andrea Ritsu 44.9% 1290 06-20-21
46 OmegaDJ 44.6% 1297 06-20-21
47 Omega Rafael Santos 43.9% 1315 06-20-21
48 P1 Pause 42.5% 1347 06-20-21
49 magnum12 40.2% 1402 06-20-21
50 VeritasDL 40.0% 1406 06-20-21
51 Cyan Ryan 38.3% 1445 06-20-21
52 Zurggriff 37.0% 1477 06-20-21
53 Auriman1 36.3% 1492 06-20-21
54 chaos shadow 34.6% 1532 06-20-21
55 Hunters13 34.2% 1541 06-20-21
55 James_Bertolli 34.2% 1541 06-20-21
57 Psymar 32.5% 1581 06-20-21
58 teamblackarms 32.4% 1583 06-20-21
59 Drakodan 32.1% 1591 06-20-21
59 FuzZerd 32.1% 1591 06-20-21
61 Quartz 30.3% 1634 06-20-21
62 eggFL 30.0% 1641 06-20-21
63 Jerzia 29.9% 1643 06-20-21
64 GerbilSoft 29.7% 1648 06-20-21
65 BigAL49 29.3% 1656 06-20-21
66 elecmouse101 28.8% 1668 06-20-21
67 Webber3000 28.4% 1677 06-20-21
68 Thorn 28.3% 1681 06-20-21
69 videogamemaster777 28.0% 1688 06-20-21
70 Mo Player Banned 27.6% 1697 06-20-21
71 Termon 26.6% 1719 06-20-21
71 Turbos 26.6% 1719 06-20-21
73 Flying Fox 25.1% 1755 06-20-21
74 Dave Cramer 24.9% 1759 06-20-21
75 buddychaos0415 23.5% 1792 06-20-21
75 nuckrieg 23.5% 1792 06-20-21
77 Shadow Jacky 22.6% 1814 06-20-21
78 N 20.8% 1855 06-20-21
79 Cream147 20.4% 1866 06-20-21
80 supersonicfan 20.2% 1870 06-20-21
81 thewaytodawnnn 20.0% 1876 06-20-21
82 NintenDan 19.8% 1880 06-20-21
83 itsPersonnal 19.6% 1884 06-20-21
84 MiStEr_ShAoLiN 19.6% 1885 06-20-21
85 Aitamen 19.4% 1889 06-20-21
86 SonicWinDX 19.1% 1895 06-20-21
87 Cybrax 19.0% 1899 06-20-21
88 supersonic465 18.9% 1901 06-20-21
89 The T 18.8% 1903 06-20-21
90 Cruizer 17.8% 1927 06-20-21
91 R3FR4G 17.3% 1939 06-20-21
92 Game_Complete 17.0% 1946 06-20-21
93 VMU Player Banned 16.8% 1951 06-20-21
94 Mastakirby 16.4% 1960 06-20-21
95 The Great Lord Mick 15.8% 1973 06-20-21
96 Questionguy555 15.0% 1991 06-20-21
97 GreatStar 14.9% 1995 06-20-21
98 Badlex727 14.7% 1998 06-20-21
99 Spinballwizard 14.6% 2001 06-20-21
100 Destroyer121121 13.4% 2029 06-20-21
100 Sondow 13.4% 2029 06-20-21
102 sonicandamy 13.3% 2031 06-20-21
103 GarnetPrincess 12.7% 2047 06-20-21
104 SonicAD 11.9% 2065 06-20-21
105 Don 10.9% 2089 06-20-21
106 Miles9999 10.6% 2095 06-20-21
107 SuperBlitzCraig 10.6% 2096 06-20-21
108 Siavash Tazari 10.2% 2104 06-20-21
109 Psyknux 9.5% 2120 06-20-21
110 Cutiefox 9.5% 2122 06-20-21
111 Werey 9.3% 2125 06-20-21
112 joecoolgames 9.1% 2130 06-20-21
113 knuckles_sonic8 9.1% 2131 06-20-21
114 mauserman 8.9% 2134 06-20-21
115 EngiNerd 8.5% 2145 06-20-21
116 Sonic Singularity 8.4% 2147 06-20-21
117 WeegeeZV 8.2% 2151 06-20-21
118 Hipertails12 8.0% 2157 06-20-21
119 dShadow 7.8% 2162 06-20-21
120 Shanekilz 7.7% 2164 06-20-21
121 Therio 7.5% 2169 06-20-21
122 Aiko 7.4% 2171 06-20-21
123 ArthurVGCP 6.9% 2181 06-20-21
124 TommyeAsY 6.7% 2186 06-20-21
125 TheChaosEmeraIds 6.6% 2190 06-20-21
126 sonic29887 6.5% 2191 06-20-21
127 Calfd 6.4% 2193 06-20-21
128 FocusSight64 6.3% 2197 06-20-21
129 Chao_Fan 5.9% 2206 06-20-21
130 djmat 5.7% 2209 06-20-21
131 paulie9990 5.5% 2214 06-20-21
132 tal39h 5.5% 2215 06-20-21
133 HHNNBBHHN 5.3% 2219 06-20-21
134 Sogeking 5.3% 2220 06-20-21
135 ModifiedMonkee 5.2% 2222 06-20-21
136 Brian_pso 4.8% 2231 06-20-21
137 Chawkk 4.7% 2234 06-20-21
138 SpinDashMaster 4.6% 2237 06-20-21
139 MK 4.5% 2239 06-20-21
140 SilvertheAlmighty 4.3% 2244 06-20-21
141 Crispian 4.0% 2249 06-20-21
142 MastaToken 3.9% 2252 06-20-21
143 SpiritDragon1995 3.7% 2257 06-20-21
144 Sonique Hedgehog 3.5% 2261 06-20-21
145 PsyBorg 3.4% 2263 06-20-21
146 KinkyCadence 3.4% 2264 06-20-21
147 FSSRandomvids 3.3% 2267 06-20-21
148 Mad Andy 3.2% 2268 06-20-21
149 koinu93 2.8% 2278 06-20-21
150 Rolken 2.7% 2280 06-20-21
151 JamminX42 2.6% 2282 06-20-21
151 Xia 2.6% 2282 06-20-21
153 andres430 2.3% 2291 06-20-21
154 shadowblast63 Player Banned 2.1% 2294 06-20-21
155 crazy1993 2.0% 2298 06-20-21
156 dabestgamer 1.9% 2299 06-20-21
157 Richied 1.8% 2302 06-20-21
158 Illidan 1.7% 2303 06-20-21
159 DanielTheFalcon 1.6% 2306 06-20-21
159 gamer1245 1.6% 2306 06-20-21
161 Iwannabelink 1.4% 2310 06-20-21
162 niscool 1.4% 2311 06-20-21
163 soniccoloursunleashed 1.3% 2313 06-20-21
164 oTaiIilLsS 1.3% 2314 06-20-21
165 ieatatsonic 1.0% 2321 06-20-21
166 Lil_Dude 0.8% 2326 06-20-21
167 LinksDarkArrows 0.7% 2327 06-20-21
168 Cbwade15 0.4% 2334 06-20-21
169 neaolas 0.3% 2337 06-20-21
170 BlankTH 0.2% 2340 06-20-21
171 Heroes_Hater 0.1% 2341 06-20-21
172 S-MS32X-S 0.0% 2343 06-20-21
173 KaM Mark MaK 0.0% 2345 06-20-21
173 MegabombBlade 0.0% 2345 06-20-21

This page is using the New Data Table System. [FUTURE]

Game ID: 3 | Category ID: 6
Hits: 6,136 | Hits This Month: 52 | DB Calls: 24 | Mem Usage: 895.30 KB | Time: 0.04s | Printable

The Sonic Center v3.9
Copyright 2003-2011 by The Sonic Center Team.